Dixie, Kentucky
Current Conditions -  °F | °C
As of 12:18 PM on Thursday 27 Nov 2014 (Local Time) from KI69 Reporting Station
Overcast Overcast  
Wind Chill: 26°   Ceiling: 3300
Heat Index: 34°   Visibility: 10mi
Dew Point: 23°   Wind: 10mph
Humidity: 65%   Direction: 310°NW
Pressure: 30.26"   Gusts: NA
Location:  39.0279°N, 84.5635°W
Report Text: KI69 271718Z AUTO 31009KT 10SM OVC033 01/M05 A3026 RMK AO1
Loading
Personal Weather Stations






























Interactive Weather Map New forecast layout! Learn more

10-Day Weather Forecast

Advertisements
Track Severe Weather on mobile